Terminal Aerodrome Forecast
Issued by NWS

Home | Current Version | Previous Version | Text Only | Print | Product List | Glossary On
Versions: 1 2 3 4 5 6 7 8 9 10 11 12 13 14 15 16 17 18 19 20 21 22 23 24 25 26 27 28 29 30
000
FTUS46 KLOX 201729
TAFLAX
TAF
KLAX 201729Z 2018/2124 22006KT P6SM SKC
     FM202000 26012KT P6SM SKC
     FM210500 26006KT P6SM SCT010
     FM210900 VRB03KT P6SM BKN008
     FM211300 VRB03KT P6SM BKN012
     FM211600 24006KT P6SM SCT015
     FM212000 26012KT P6SM SKC=

USA.gov is the U.S. government's official web portal to all federal, state and local government web resources and services.